Time;durP1;ratioP1;P1;durP2;ratioP2;P2;SDS_P1;SDS_P2;PMS_P1;PMS_P2;Temp;Humidity;BMP_temperature;BMP_pressure;BME280_temperature;BME280_humidity;BME280_pressure;Samples;Min_cycle;Max_cycle;Signal;HPM_P1;HPM_P2
2022/06/04 00:01:15;;;;;;;;;;;;;;;;;;4911644;28;20395;-63
2022/06/04 00:03:41;;;;;;;;;;;;;;;;;;4911908;28;19914;-63
2022/06/04 00:06:06;;;;;;;;;;;;;;;;;;4911974;28;20300;-63
2022/06/04 00:08:32;;;;;;;;;;;;;;;;;;4911732;28;20241;-63
2022/06/04 00:16:26;;;;;;;;;;;;;;;;;;4911625;28;20448;-63
2022/06/04 00:18:51;;;;;;;;;;;;;;;;;;4911490;28;20329;-63
2022/06/04 00:21:17;;;;;;;;;;;;;;;;;;4911290;28;20321;-63
2022/06/04 00:23:42;;;;;;;;;;;;;;;;;;4912237;28;19985;-64
2022/06/04 00:26:08;;;;;;;;;;;;;;;;;;4911073;28;20277;-63
2022/06/04 00:28:33;;;;;;;;;;;;;;;;;;4912035;28;20449;-63
2022/06/04 00:30:59;;;;;;;;;;;;;;;;;;4911141;28;20265;-63
2022/06/04 00:33:26;;;;;;;;;;;;;;;;;;4912289;28;20419;-63
2022/06/04 00:35:52;;;;;;;;;;;;;;;;;;4912249;28;20365;-64
2022/06/04 00:38:18;;;;;;;;;;;;;;;;;;4913509;28;20325;-63
2022/06/04 00:40:47;;;;;;;;;;;;;;;;;;4915366;28;20293;-64
2022/06/04 00:43:12;;;;;;;;;;;;;;;;;;4915339;28;20441;-63
2022/06/04 00:45:37;;;;;;;;;;;;;;;;;;4915153;28;20317;-63
2022/06/04 00:48:07;;;;;;;;;;;;;;;;;;4915263;28;20347;-64
2022/06/04 00:50:33;;;;;;;;;;;;;;;;;;4915200;28;20406;-63
2022/06/04 00:52:59;;;;;;;;;;;;;;;;;;4916046;28;20233;-64
2022/06/04 00:55:24;;;;;;;;;;;;;;;;;;4913194;28;20237;-63
2022/06/04 00:57:56;;;;;;;;;;;;;;;;;;4913493;28;20344;-64
2022/06/04 01:00:27;;;;;;;;;;;;;;;;;;4911902;28;20190;-63
2022/06/04 01:03:16;;;;;;;;;;;;;;;;;;4913223;28;20360;-62
2022/06/04 01:05:44;;;;;;;;;;;;;;;;;;4887400;28;20360;-64
2022/06/04 01:08:09;;;;;;;;;;;;;;;;;;4914596;28;19990;-63
2022/06/04 01:11:10;;;;;;;;;;;;;;;;;;4914892;28;20341;-64
2022/06/04 01:13:36;;;;;;;;;;;;;;;;;;4855504;29;20224;-64
2022/06/04 01:16:11;;;;;;;;;;;;;;;;;;4902053;28;20384;-63
2022/06/04 01:18:41;;;;;;;;;;;;;;;;;;4914765;28;20310;-65
2022/06/04 01:21:18;;;;;;;;;;;;;;;;;;4914275;28;20233;-63
2022/06/04 01:23:49;;;;;;;;;;;;;;;;;;4914882;28;20340;-62
2022/06/04 01:26:32;;;;;;;;;;;;;;;;;;4914457;28;20329;-63
2022/06/04 01:29:03;;;;;;;;;;;;;;;;;;4914566;28;20329;-64
2022/06/04 01:31:31;;;;;;;;;;;;;;;;;;4913395;28;20347;-63
2022/06/04 01:33:58;;;;;;;;;;;;;;;;;;4912628;28;19918;-62
2022/06/04 01:36:28;;;;;;;;;;;;;;;;;;4912921;28;20319;-63
2022/06/04 01:38:54;;;;;;;;;;;;;;;;;;4913117;28;19914;-63
2022/06/04 01:41:23;;;;;;;;;;;;;;;;;;4914487;28;20329;-63
2022/06/04 01:43:53;;;;;;;;;;;;;;;;;;4912647;28;19937;-63
2022/06/04 01:46:18;;;;;;;;;;;;;;;;;;4912281;28;20329;-66
2022/06/04 01:48:44;;;;;;;;;;;;;;;;;;4914084;28;20240;-63
2022/06/04 01:51:09;;;;;;;;;;;;;;;;;;4912728;28;20071;-63
2022/06/04 01:53:35;;;;;;;;;;;;;;;;;;4914210;28;20284;-63
2022/06/04 01:56:02;;;;;;;;;;;;;;;;;;4913949;28;20253;-65
2022/06/04 01:58:28;;;;;;;;;;;;;;;;;;4914255;28;20314;-63
2022/06/04 02:00:57;;;;;;;;;;;;;;;;;;4912052;28;19977;-63
2022/06/04 02:03:29;;;;;;;;;;;;;;;;;;4912739;28;19936;-63
2022/06/04 02:05:58;;;;;;;;;;;;;;;;;;4913743;28;20019;-63
2022/06/04 02:08:24;;;;;;;;;;;;;;;;;;4912438;28;20424;-63
2022/06/04 02:10:53;;;;;;;;;;;;;;;;;;4912808;28;20295;-64
2022/06/04 02:13:18;;;;;;;;;;;;;;;;;;4912282;28;19914;-63
2022/06/04 02:15:47;;;;;;;;;;;;;;;;;;4912172;28;20336;-63
2022/06/04 02:18:13;;;;;;;;;;;;;;;;;;4913547;28;20024;-62
2022/06/04 02:20:38;;;;;;;;;;;;;;;;;;4913538;28;19936;-63
2022/06/04 02:23:03;;;;;;;;;;;;;;;;;;4914553;28;20333;-62
2022/06/04 02:25:29;;;;;;;;;;;;;;;;;;4912714;28;20390;-63
2022/06/04 02:27:54;;;;;;;;;;;;;;;;;;4913442;28;20249;-63
2022/06/04 02:30:20;;;;;;;;;;;;;;;;;;4913375;28;20236;-63
2022/06/04 02:32:46;;;;;;;;;;;;;;;;;;4912471;28;20260;-63
2022/06/04 02:35:22;;;;;;;;;;;;;;;;;;4913222;28;20226;-63
2022/06/04 02:37:47;;;;;;;;;;;;;;;;;;4912595;28;20209;-64
2022/06/04 02:40:13;;;;;;;;;;;;;;;;;;4913069;28;20248;-63
2022/06/04 02:43:00;;;;;;;;;;;;;;;;;;4913047;28;19984;-63
2022/06/04 02:45:39;;;;;;;;;;;;;;;;;;4911659;28;20317;-63
2022/06/04 02:48:24;;;;;;;;;;;;;;;;;;4911437;28;20323;-63
2022/06/04 02:50:52;;;;;;;;;;;;;;;;;;4912314;28;20344;-62
2022/06/04 02:53:18;;;;;;;;;;;;;;;;;;4912922;28;19910;-63
2022/06/04 02:56:09;;;;;;;;;;;;;;;;;;4911023;28;20331;-63
2022/06/04 02:58:35;;;;;;;;;;;;;;;;;;4909882;28;20360;-64
2022/06/04 03:01:00;;;;;;;;;;;;;;;;;;4910504;28;20426;-63
2022/06/04 03:03:25;;;;;;;;;;;;;;;;;;4911301;28;20317;-64
2022/06/04 03:05:58;;;;;;;;;;;;;;;;;;4911495;28;19914;-63
2022/06/04 03:08:23;;;;;;;;;;;;;;;;;;4912613;28;20261;-63
2022/06/04 03:10:49;;;;;;;;;;;;;;;;;;4913328;28;20276;-63
2022/06/04 03:13:14;;;;;;;;;;;;;;;;;;4912361;28;20423;-63
2022/06/04 03:15:39;;;;;;;;;;;;;;;;;;4912627;28;19914;-63
2022/06/04 03:18:05;;;;;;;;;;;;;;;;;;4912497;28;20240;-62
2022/06/04 03:20:30;;;;;;;;;;;;;;;;;;4912647;28;19937;-63
2022/06/04 03:22:55;;;;;;;;;;;;;;;;;;4912825;28;20257;-63
2022/06/04 03:25:21;;;;;;;;;;;;;;;;;;4912999;28;20289;-64
2022/06/04 03:27:46;;;;;;;;;;;;;;;;;;4912343;28;20597;-63
2022/06/04 03:30:12;;;;;;;;;;;;;;;;;;4911915;28;20416;-64
2022/06/04 03:32:37;;;;;;;;;;;;;;;;;;4911048;28;19918;-62
2022/06/04 03:35:02;;;;;;;;;;;;;;;;;;4912147;28;20373;-63
2022/06/04 03:37:28;;;;;;;;;;;;;;;;;;4912646;28;20202;-62
2022/06/04 03:39:53;;;;;;;;;;;;;;;;;;4912651;28;20248;-63
2022/06/04 03:42:18;;;;;;;;;;;;;;;;;;4913300;28;19910;-63
2022/06/04 03:44:47;;;;;;;;;;;;;;;;;;4912056;28;20025;-63
2022/06/04 03:47:13;;;;;;;;;;;;;;;;;;4912372;28;20233;-62
2022/06/04 03:49:39;;;;;;;;;;;;;;;;;;4911819;28;20268;-63
2022/06/04 03:52:04;;;;;;;;;;;;;;;;;;4912600;28;20014;-62
2022/06/04 03:59:57;;;;;;;;;;;;;;;;;;4911633;28;20375;-63
2022/06/04 04:02:23;;;;;;;;;;;;;;;;;;4911935;28;20336;-62
2022/06/04 04:04:48;;;;;;;;;;;;;;;;;;4911657;28;20284;-63
2022/06/04 04:07:14;;;;;;;;;;;;;;;;;;4912002;28;20305;-63
2022/06/04 04:09:39;;;;;;;;;;;;;;;;;;4911663;28;20252;-63
2022/06/04 04:12:05;;;;;;;;;;;;;;;;;;4912658;28;20312;-63
2022/06/04 04:14:30;;;;;;;;;;;;;;;;;;4912261;28;20277;-63
2022/06/04 04:16:55;;;;;;;;;;;;;;;;;;4912615;28;20198;-63
2022/06/04 04:19:21;;;;;;;;;;;;;;;;;;4913174;28;20307;-62
2022/06/04 04:21:46;;;;;;;;;;;;;;;;;;4911434;28;20284;-63
2022/06/04 04:24:11;;;;;;;;;;;;;;;;;;4912037;28;20453;-63
2022/06/04 04:26:40;;;;;;;;;;;;;;;;;;4911272;28;20372;-63
2022/06/04 04:29:06;;;;;;;;;;;;;;;;;;4912992;28;19917;-63
2022/06/04 04:31:34;;;;;;;;;;;;;;;;;;4911514;28;20225;-63
2022/06/04 04:33:59;;;;;;;;;;;;;;;;;;4911891;28;20392;-64
2022/06/04 04:36:30;;;;;;;;;;;;;;;;;;4912044;28;20277;-63
2022/06/04 04:38:55;;;;;;;;;;;;;;;;;;4911425;28;20281;-63
2022/06/04 04:41:20;;;;;;;;;;;;;;;;;;4911661;28;20269;-62
2022/06/04 04:43:45;;;;;;;;;;;;;;;;;;4911336;28;20020;-63
2022/06/04 04:46:11;;;;;;;;;;;;;;;;;;4911536;28;20319;-62
2022/06/04 04:48:37;;;;;;;;;;;;;;;;;;4911192;28;19914;-63
2022/06/04 04:51:02;;;;;;;;;;;;;;;;;;4912000;28;20368;-63
2022/06/04 04:53:27;;;;;;;;;;;;;;;;;;4911412;28;20328;-63
2022/06/04 04:55:53;;;;;;;;;;;;;;;;;;4912488;28;20260;-64
2022/06/04 04:58:19;;;;;;;;;;;;;;;;;;4911796;28;20224;-63
2022/06/04 05:00:44;;;;;;;;;;;;;;;;;;4911160;28;20265;-63
2022/06/04 05:03:09;;;;;;;;;;;;;;;;;;4911558;28;20321;-63
2022/06/04 05:05:35;;;;;;;;;;;;;;;;;;4912272;28;20261;-63
2022/06/04 05:08:01;;;;;;;;;;;;;;;;;;4911564;28;20289;-63
2022/06/04 05:10:26;;;;;;;;;;;;;;;;;;4910559;28;20320;-64
2022/06/04 05:12:52;;;;;;;;;;;;;;;;;;4909746;28;20368;-62
2022/06/04 05:15:18;;;;;;;;;;;;;;;;;;4912496;28;20345;-63
2022/06/04 05:17:43;;;;;;;;;;;;;;;;;;4909065;28;20420;-64
2022/06/04 05:20:09;;;;;;;;;;;;;;;;;;4911112;28;20233;-64
2022/06/04 05:22:34;;;;;;;;;;;;;;;;;;4909742;28;20453;-67
2022/06/04 05:24:59;;;;;;;;;;;;;;;;;;4912979;28;20199;-63
2022/06/04 05:27:25;;;;;;;;;;;;;;;;;;4915017;28;20348;-64
2022/06/04 05:29:50;;;;;;;;;;;;;;;;;;4914621;28;20408;-62
2022/06/04 05:32:15;;;;;;;;;;;;;;;;;;4914306;28;19936;-64
2022/06/04 05:34:40;;;;;;;;;;;;;;;;;;4912974;28;20330;-64
2022/06/04 05:37:06;;;;;;;;;;;;;;;;;;4915535;28;20249;-65
2022/06/04 05:39:31;;;;;;;;;;;;;;;;;;4915230;28;20261;-63
2022/06/04 05:41:57;;;;;;;;;;;;;;;;;;4914596;28;20292;-62
2022/06/04 05:44:22;;;;;;;;;;;;;;;;;;4914417;28;19914;-63
2022/06/04 05:46:48;;;;;;;;;;;;;;;;;;4914137;28;19914;-63
2022/06/04 05:49:13;;;;;;;;;;;;;;;;;;4914669;28;20233;-63
2022/06/04 05:51:41;;;;;;;;;;;;;;;;;;4914037;28;20085;-63
2022/06/04 05:54:06;;;;;;;;;;;;;;;;;;4913978;28;19917;-63
2022/06/04 05:56:32;;;;;;;;;;;;;;;;;;4913657;28;20348;-63
2022/06/04 05:58:58;;;;;;;;;;;;;;;;;;4914672;28;19917;-63
2022/06/04 06:01:24;;;;;;;;;;;;;;;;;;4913615;28;20285;-63
2022/06/04 06:03:50;;;;;;;;;;;;;;;;;;4915111;28;20281;-63
2022/06/04 06:06:17;;;;;;;;;;;;;;;;;;4913584;28;20329;-62
2022/06/04 06:08:43;;;;;;;;;;;;;;;;;;4914595;28;20311;-63
2022/06/04 06:11:09;;;;;;;;;;;;;;;;;;4913770;28;20213;-63
2022/06/04 06:13:34;;;;;;;;;;;;;;;;;;4913604;28;20222;-63
2022/06/04 06:16:06;;;;;;;;;;;;;;;;;;4913660;28;20203;-62
2022/06/04 06:18:32;;;;;;;;;;;;;;;;;;4913079;28;19910;-61
2022/06/04 06:20:58;;;;;;;;;;;;;;;;;;4913528;28;20328;-62
2022/06/04 06:23:24;;;;;;;;;;;;;;;;;;4913467;28;20242;-62
2022/06/04 06:25:49;;;;;;;;;;;;;;;;;;4914764;28;19914;-62
2022/06/04 06:28:15;;;;;;;;;;;;;;;;;;4913291;28;19980;-61
2022/06/04 06:30:40;;;;;;;;;;;;;;;;;;4913375;28;20273;-61
2022/06/04 06:33:05;;;;;;;;;;;;;;;;;;4914697;28;20305;-61
2022/06/04 06:35:30;;;;;;;;;;;;;;;;;;4912907;28;20272;-61
2022/06/04 06:37:56;;;;;;;;;;;;;;;;;;4915420;28;20337;-62
2022/06/04 06:40:21;;;;;;;;;;;;;;;;;;4913401;28;20257;-61
2022/06/04 06:42:46;;;;;;;;;;;;;;;;;;4913215;28;20262;-62
2022/06/04 06:45:12;;;;;;;;;;;;;;;;;;4914895;28;20258;-61
2022/06/04 06:47:37;;;;;;;;;;;;;;;;;;4913586;28;20253;-61
2022/06/04 06:50:03;;;;;;;;;;;;;;;;;;4912845;28;20369;-61
2022/06/04 06:52:28;;;;;;;;;;;;;;;;;;4914158;28;19937;-61
2022/06/04 06:54:53;;;;;;;;;;;;;;;;;;4913890;28;20190;-62
2022/06/04 06:57:18;;;;;;;;;;;;;;;;;;4914228;28;20230;-62
2022/06/04 06:59:46;;;;;;;;;;;;;;;;;;4912893;28;19953;-61
2022/06/04 07:02:12;;;;;;;;;;;;;;;;;;4912788;28;19914;-62
2022/06/04 07:04:37;;;;;;;;;;;;;;;;;;4912729;28;19980;-61
2022/06/04 07:07:03;;;;;;;;;;;;;;;;;;4912837;28;20325;-61
2022/06/04 07:09:32;;;;;;;;;;;;;;;;;;4912838;28;19914;-61
2022/06/04 07:11:58;;;;;;;;;;;;;;;;;;4912741;28;20214;-61
2022/06/04 07:14:23;;;;;;;;;;;;;;;;;;4912883;28;20237;-61
2022/06/04 07:16:49;;;;;;;;;;;;;;;;;;4912344;28;20329;-62
2022/06/04 07:19:15;;;;;;;;;;;;;;;;;;4912495;28;20359;-61
2022/06/04 07:21:40;;;;;;;;;;;;;;;;;;4913675;28;20249;-61
2022/06/04 07:24:06;;;;;;;;;;;;;;;;;;4912299;28;20256;-62
2022/06/04 07:26:31;;;;;;;;;;;;;;;;;;4912326;28;20327;-62
2022/06/04 07:28:56;;;;;;;;;;;;;;;;;;4912581;28;20316;-61
2022/06/04 07:31:22;;;;;;;;;;;;;;;;;;4912070;28;20317;-61
2022/06/04 07:33:48;;;;;;;;;;;;;;;;;;4914093;28;20265;-61
2022/06/04 07:36:16;;;;;;;;;;;;;;;;;;4912152;28;20332;-61
2022/06/04 07:38:42;;;;;;;;;;;;;;;;;;4912299;28;20321;-62
2022/06/04 07:41:08;;;;;;;;;;;;;;;;;;4913774;28;20008;-61
2022/06/04 07:43:33;;;;;;;;;;;;;;;;;;4912057;28;20343;-61
2022/06/04 07:45:58;;;;;;;;;;;;;;;;;;4913341;28;20379;-61
2022/06/04 07:48:23;;;;;;;;;;;;;;;;;;4911126;28;20288;-62
2022/06/04 07:50:49;;;;;;;;;;;;;;;;;;4912765;28;20336;-62
2022/06/04 07:53:14;;;;;;;;;;;;;;;;;;4912049;28;20344;-61
2022/06/04 07:55:40;;;;;;;;;;;;;;;;;;4911795;28;20358;-62
2022/06/04 07:58:05;;;;;;;;;;;;;;;;;;4912764;28;20340;-62
2022/06/04 08:00:30;;;;;;;;;;;;;;;;;;4911923;28;20400;-61
2022/06/04 08:02:56;;;;;;;;;;;;;;;;;;4912466;28;20233;-63
2022/06/04 08:05:21;;;;;;;;;;;;;;;;;;4911567;28;19937;-62
2022/06/04 08:07:47;;;;;;;;;;;;;;;;;;4911498;28;19914;-62
2022/06/04 08:10:12;;;;;;;;;;;;;;;;;;4911385;28;20268;-62
2022/06/04 08:13:14;;;;;;;;;;;;;;;;;;4911688;28;20261;-62
2022/06/04 08:15:29;;;;;;;;;;;;;;;;;;4908725;28;20388;-61
2022/06/04 08:17:54;;;;;;;;;;;;;;;;;;4911720;28;20395;-62
2022/06/04 08:20:19;;;;;;;;;;;;;;;;;;4911738;28;20303;-62
2022/06/04 08:22:45;;;;;;;;;;;;;;;;;;4911925;28;20332;-61
2022/06/04 08:25:10;;;;;;;;;;;;;;;;;;4912040;28;20261;-62
2022/06/04 08:27:35;;;;;;;;;;;;;;;;;;4911643;28;20313;-62
2022/06/04 08:30:01;;;;;;;;;;;;;;;;;;4912113;28;20230;-62
2022/06/04 08:32:26;;;;;;;;;;;;;;;;;;4911259;28;20293;-62
2022/06/04 08:34:51;;;;;;;;;;;;;;;;;;4911680;28;19918;-62
2022/06/04 08:37:17;;;;;;;;;;;;;;;;;;4912162;28;20321;-62
2022/06/04 08:39:42;;;;;;;;;;;;;;;;;;4911884;28;20321;-63
2022/06/04 08:42:10;;;;;;;;;;;;;;;;;;4911834;28;20297;-62
2022/06/04 08:44:48;;;;;;;;;;;;;;;;;;4911151;28;20378;-62
2022/06/04 08:47:15;;;;;;;;;;;;;;;;;;4911561;28;20372;-62
2022/06/04 08:49:43;;;;;;;;;;;;;;;;;;4911202;28;20273;-62
2022/06/04 08:52:16;;;;;;;;;;;;;;;;;;4910468;28;20331;-62
2022/06/04 08:57:33;;;;;;;;;;;;;;;;;;4911447;28;20276;-62
2022/06/04 09:00:01;;;;;;;;;;;;;;;;;;4915262;28;20325;-62
2022/06/04 09:02:47;;;;;;;;;;;;;;;;;;4914815;28;20329;-63
2022/06/04 09:05:15;;;;;;;;;;;;;;;;;;4914421;28;20301;-62
2022/06/04 09:07:41;;;;;;;;;;;;;;;;;;4913687;28;20276;-62
2022/06/04 09:10:16;;;;;;;;;;;;;;;;;;4913568;28;20321;-63
2022/06/04 09:12:50;;;;;;;;;;;;;;;;;;4915014;28;19921;-62
2022/06/04 09:15:22;;;;;;;;;;;;;;;;;;4915594;28;20236;-61
2022/06/04 09:17:50;;;;;;;;;;;;;;;;;;4913287;28;20355;-62
2022/06/04 09:20:16;;;;;;;;;;;;;;;;;;4914503;28;19918;-62
2022/06/04 09:22:42;;;;;;;;;;;;;;;;;;4914600;28;19918;-64
2022/06/04 09:25:17;;;;;;;;;;;;;;;;;;4914389;28;20388;-62
2022/06/04 09:27:44;;;;;;;;;;;;;;;;;;4913021;28;20384;-63
2022/06/04 09:30:12;;;;;;;;;;;;;;;;;;4931252;28;20336;-62
2022/06/04 09:32:47;;;;;;;;;;;;;;;;;;4952694;28;20355;-63
2022/06/04 09:35:16;;;;;;;;;;;;;;;;;;4936371;28;20337;-62
2022/06/04 09:37:42;;;;;;;;;;;;;;;;;;4935072;28;20335;-62
2022/06/04 09:40:12;;;;;;;;;;;;;;;;;;4954301;28;20252;-62
2022/06/04 09:42:38;;;;;;;;;;;;;;;;;;4935060;28;20328;-62
2022/06/04 09:45:04;;;;;;;;;;;;;;;;;;4954031;28;19921;-63
2022/06/04 09:47:39;;;;;;;;;;;;;;;;;;4952778;28;20355;-63
2022/06/04 09:50:24;;;;;;;;;;;;;;;;;;4952995;28;19984;-62
2022/06/04 09:53:00;;;;;;;;;;;;;;;;;;4953151;28;20248;-62
2022/06/04 09:55:25;;;;;;;;;;;;;;;;;;4952549;28;19971;-62
2022/06/04 09:57:55;;;;;;;;;;;;;;;;;;4952809;28;20336;-62
2022/06/04 10:00:28;;;;;;;;;;;;;;;;;;4953394;28;20263;-62
2022/06/04 10:02:54;;;;;;;;;;;;;;;;;;4953104;28;20328;-62
2022/06/04 10:05:21;;;;;;;;;;;;;;;;;;4952636;28;19953;-62
2022/06/04 10:07:46;;;;;;;;;;;;;;;;;;4952902;28;20323;-64
2022/06/04 10:10:11;;;;;;;;;;;;;;;;;;4951510;28;20000;-62
2022/06/04 10:15:38;;;;;;;;;;;;;;;;;;4937891;28;20279;-62
2022/06/04 10:18:22;;;;;;;;;;;;;;;;;;4952213;28;20298;-62
2022/06/04 10:20:55;;;;;;;;;;;;;;;;;;4952201;28;19913;-61
2022/06/04 10:23:20;;;;;;;;;;;;;;;;;;4951956;28;20259;-63
2022/06/04 10:26:07;;;;;;;;;;;;;;;;;;4951639;28;20263;-62
2022/06/04 10:28:52;;;;;;;;;;;;;;;;;;4922227;28;20235;-62
2022/06/04 10:31:31;;;;;;;;;;;;;;;;;;4918472;28;20321;-63
2022/06/04 10:34:01;;;;;;;;;;;;;;;;;;4911578;28;20012;-63
2022/06/04 10:36:30;;;;;;;;;;;;;;;;;;4913883;28;20225;-62
2022/06/04 10:39:04;;;;;;;;;;;;;;;;;;4914115;28;20004;-62
2022/06/04 10:41:39;;;;;;;;;;;;;;;;;;4913091;28;19988;-62
2022/06/04 10:44:23;;;;;;;;;;;;;;;;;;4914686;28;20344;-62
2022/06/04 10:46:48;;;;;;;;;;;;;;;;;;4912922;28;20363;-63
2022/06/04 10:49:14;;;;;;;;;;;;;;;;;;4913093;28;20365;-63
2022/06/04 10:51:57;;;;;;;;;;;;;;;;;;4913738;28;20269;-62
2022/06/04 10:54:23;;;;;;;;;;;;;;;;;;4913135;28;20402;-63
2022/06/04 10:56:53;;;;;;;;;;;;;;;;;;4913209;28;20260;-62
2022/06/04 10:59:42;;;;;;;;;;;;;;;;;;4913207;28;20363;-62
2022/06/04 11:02:33;;;;;;;;;;;;;;;;;;4903939;28;20248;-62
2022/06/04 11:05:06;;;;;;;;;;;;;;;;;;4908669;28;20276;-63
2022/06/04 11:07:40;;;;;;;;;;;;;;;;;;4910694;28;20395;-64
2022/06/04 11:10:07;;;;;;;;;;;;;;;;;;4913332;28;20388;-62
2022/06/04 11:12:51;;;;;;;;;;;;;;;;;;4911608;28;19914;-62
2022/06/04 11:15:20;;;;;;;;;;;;;;;;;;4911235;28;20298;-63
2022/06/04 11:17:54;;;;;;;;;;;;;;;;;;4910957;28;20269;-62
2022/06/04 11:20:24;;;;;;;;;;;;;;;;;;4910071;28;20384;-62
2022/06/04 11:23:08;;;;;;;;;;;;;;;;;;4908723;28;20333;-63
2022/06/04 11:25:34;;;;;;;;;;;;;;;;;;4910338;28;20332;-61
2022/06/04 11:28:06;;;;;;;;;;;;;;;;;;4909091;28;20329;-64
2022/06/04 11:30:41;;;;;;;;;;;;;;;;;;4910229;28;19941;-62
2022/06/04 11:33:06;;;;;;;;;;;;;;;;;;4911197;28;20264;-63
2022/06/04 11:35:34;;;;;;;;;;;;;;;;;;4912685;28;19918;-63
2022/06/04 11:38:18;;;;;;;;;;;;;;;;;;4910245;28;20024;-63
2022/06/04 11:40:44;;;;;;;;;;;;;;;;;;4910486;28;20461;-62
2022/06/04 11:43:13;;;;;;;;;;;;;;;;;;4910542;28;20325;-62
2022/06/04 11:45:44;;;;;;;;;;;;;;;;;;4908898;28;20253;-62
2022/06/04 11:48:19;;;;;;;;;;;;;;;;;;4910240;28;20329;-63
2022/06/04 11:50:53;;;;;;;;;;;;;;;;;;4911013;28;20249;-62
2022/06/04 11:53:30;;;;;;;;;;;;;;;;;;4910536;28;20330;-63
2022/06/04 11:55:58;;;;;;;;;;;;;;;;;;4910172;28;20328;-62
2022/06/04 11:58:32;;;;;;;;;;;;;;;;;;4908949;28;20285;-62
2022/06/04 12:00:58;;;;;;;;;;;;;;;;;;4910297;28;20321;-63
2022/06/04 12:03:26;;;;;;;;;;;;;;;;;;4910942;28;19940;-62
2022/06/04 12:06:13;;;;;;;;;;;;;;;;;;4909811;28;20333;-63
2022/06/04 12:08:41;;;;;;;;;;;;;;;;;;4911012;28;20253;-63
2022/06/04 12:11:26;;;;;;;;;;;;;;;;;;4909574;28;20289;-64
2022/06/04 12:13:51;;;;;;;;;;;;;;;;;;4908158;28;20333;-63
2022/06/04 12:16:16;;;;;;;;;;;;;;;;;;4909937;28;20352;-62
2022/06/04 12:18:43;;;;;;;;;;;;;;;;;;4910632;28;20301;-62
2022/06/04 12:24:27;;;;;;;;;;;;;;;;;;4909824;28;19975;-63
2022/06/04 12:27:03;;;;;;;;;;;;;;;;;;4911092;28;20093;-62
2022/06/04 12:29:29;;;;;;;;;;;;;;;;;;4911372;28;20329;-62
2022/06/04 12:32:05;;;;;;;;;;;;;;;;;;4909653;28;20387;-63
2022/06/04 12:34:35;;;;;;;;;;;;;;;;;;4911468;28;20321;-62
2022/06/04 12:37:01;;;;;;;;;;;;;;;;;;4913370;28;20300;-62
2022/06/04 12:39:39;;;;;;;;;;;;;;;;;;4912297;28;20250;-62
2022/06/04 12:42:20;;;;;;;;;;;;;;;;;;4913708;28;20357;-61
2022/06/04 12:45:15;;;;;;;;;;;;;;;;;;4913612;28;19918;-61
2022/06/04 12:47:42;;;;;;;;;;;;;;;;;;4901174;28;20245;-62
2022/06/04 12:50:16;;;;;;;;;;;;;;;;;;4913169;28;20241;-61
2022/06/04 12:52:42;;;;;;;;;;;;;;;;;;4913708;28;20272;-61
2022/06/04 12:55:19;;;;;;;;;;;;;;;;;;4913505;28;20328;-63
2022/06/04 12:57:47;;;;;;;;;;;;;;;;;;4911977;28;20009;-61
2022/06/04 13:00:18;;;;;;;;;;;;;;;;;;4913705;28;20339;-62
2022/06/04 13:03:12;;;;;;;;;;;;;;;;;;4914968;28;20229;-62
2022/06/04 13:05:54;;;;;;;;;;;;;;;;;;4914135;28;20338;-62
2022/06/04 13:08:19;;;;;;;;;;;;;;;;;;4913877;28;20400;-61
2022/06/04 13:10:48;;;;;;;;;;;;;;;;;;4913245;28;20384;-61
2022/06/04 13:13:36;;;;;;;;;;;;;;;;;;4911387;28;19914;-61
2022/06/04 13:16:04;;;;;;;;;;;;;;;;;;4895275;28;20226;-62
2022/06/04 13:18:33;;;;;;;;;;;;;;;;;;4913531;28;19910;-61
2022/06/04 13:21:02;;;;;;;;;;;;;;;;;;4913383;28;20012;-61
2022/06/04 13:23:27;;;;;;;;;;;;;;;;;;4912814;28;20316;-61
2022/06/04 13:25:53;;;;;;;;;;;;;;;;;;4912776;28;20304;-61
2022/06/04 13:28:25;;;;;;;;;;;;;;;;;;4913078;28;20265;-61
2022/06/04 13:30:51;;;;;;;;;;;;;;;;;;4913125;28;20341;-61
2022/06/04 13:33:16;;;;;;;;;;;;;;;;;;4912768;28;20407;-61
2022/06/04 13:35:43;;;;;;;;;;;;;;;;;;4912367;28;20249;-61
2022/06/04 13:38:11;;;;;;;;;;;;;;;;;;4912341;28;20357;-62
2022/06/04 13:40:36;;;;;;;;;;;;;;;;;;4911215;28;20313;-63
2022/06/04 13:43:01;;;;;;;;;;;;;;;;;;4911371;28;20306;-61
2022/06/04 13:45:29;;;;;;;;;;;;;;;;;;4909455;28;20316;-61
2022/06/04 13:47:59;;;;;;;;;;;;;;;;;;4912322;28;20264;-60
2022/06/04 13:50:26;;;;;;;;;;;;;;;;;;4912577;28;20329;-62
2022/06/04 13:52:57;;;;;;;;;;;;;;;;;;4912982;28;20345;-61
2022/06/04 13:55:26;;;;;;;;;;;;;;;;;;4912550;28;20241;-61
2022/06/04 13:57:51;;;;;;;;;;;;;;;;;;4914496;28;20329;-61
2022/06/04 14:00:18;;;;;;;;;;;;;;;;;;4912394;28;20415;-61
2022/06/04 14:02:43;;;;;;;;;;;;;;;;;;4912008;28;20254;-61
2022/06/04 14:08:05;;;;;;;;;;;;;;;;;;4912359;28;20237;-61
2022/06/04 14:10:31;;;;;;;;;;;;;;;;;;4913363;28;20392;-62
2022/06/04 14:13:15;;;;;;;;;;;;;;;;;;4912321;28;20499;-61
2022/06/04 14:15:50;;;;;;;;;;;;;;;;;;4911870;28;20244;-62
2022/06/04 14:18:28;;;;;;;;;;;;;;;;;;4911709;28;20341;-61
2022/06/04 14:20:56;;;;;;;;;;;;;;;;;;4912336;28;19977;-62
2022/06/04 14:23:29;;;;;;;;;;;;;;;;;;4912007;28;20368;-62
2022/06/04 14:25:54;;;;;;;;;;;;;;;;;;4910681;28;20318;-62
2022/06/04 14:28:25;;;;;;;;;;;;;;;;;;4911699;28;20353;-62
2022/06/04 14:31:23;;;;;;;;;;;;;;;;;;4911196;28;20330;-61
2022/06/04 14:33:48;;;;;;;;;;;;;;;;;;4878748;28;20306;-62
2022/06/04 14:36:18;;;;;;;;;;;;;;;;;;4912366;28;19918;-62
2022/06/04 14:38:43;;;;;;;;;;;;;;;;;;4911649;28;20397;-62
2022/06/04 14:41:18;;;;;;;;;;;;;;;;;;4911937;28;20329;-62
2022/06/04 14:43:49;;;;;;;;;;;;;;;;;;4911478;28;20320;-62
2022/06/04 14:46:32;;;;;;;;;;;;;;;;;;4911545;28;19977;-61
2022/06/04 14:49:00;;;;;;;;;;;;;;;;;;4911132;28;20349;-62
2022/06/04 14:51:41;;;;;;;;;;;;;;;;;;4911304;28;20361;-63
2022/06/04 14:54:06;;;;;;;;;;;;;;;;;;4911345;28;20349;-62
2022/06/04 14:56:31;;;;;;;;;;;;;;;;;;4909935;28;20288;-63
2022/06/04 14:59:06;;;;;;;;;;;;;;;;;;4911400;28;20273;-62
2022/06/04 15:01:51;;;;;;;;;;;;;;;;;;4911031;28;20368;-62
2022/06/04 15:04:22;;;;;;;;;;;;;;;;;;4910454;28;20261;-62
2022/06/04 15:07:06;;;;;;;;;;;;;;;;;;4910913;28;20288;-62
2022/06/04 15:09:31;;;;;;;;;;;;;;;;;;4910897;28;19937;-61
2022/06/04 15:12:06;;;;;;;;;;;;;;;;;;4911252;28;19914;-62
2022/06/04 15:14:47;;;;;;;;;;;;;;;;;;4890160;28;20267;-62
2022/06/04 15:17:25;;;;;;;;;;;;;;;;;;4911022;28;20341;-61
2022/06/04 15:19:50;;;;;;;;;;;;;;;;;;4910432;28;20241;-62
2022/06/04 15:22:15;;;;;;;;;;;;;;;;;;4910794;28;19941;-62
2022/06/04 15:24:50;;;;;;;;;;;;;;;;;;4910782;28;20341;-61
2022/06/04 15:27:27;;;;;;;;;;;;;;;;;;4909347;28;19938;-62
2022/06/04 15:35:35;;;;;;;;;;;;;;;;;;4928603;28;20340;-61
2022/06/04 15:38:07;;;;;;;;;;;;;;;;;;4930094;28;20229;-62
2022/06/04 15:40:33;;;;;;;;;;;;;;;;;;4928054;28;20349;-62
2022/06/04 15:43:07;;;;;;;;;;;;;;;;;;4928086;28;20287;-62
2022/06/04 15:45:34;;;;;;;;;;;;;;;;;;4930285;28;20321;-62
2022/06/04 15:48:02;;;;;;;;;;;;;;;;;;4929635;28;20309;-62
2022/06/04 15:56:23;;;;;;;;;;;;;;;;;;4929789;28;20299;-62
2022/06/04 15:58:51;;;;;;;;;;;;;;;;;;4929905;28;20232;-62
2022/06/04 16:01:25;;;;;;;;;;;;;;;;;;4929665;28;20003;-62
2022/06/04 16:03:56;;;;;;;;;;;;;;;;;;4930453;28;20300;-62
2022/06/04 16:06:22;;;;;;;;;;;;;;;;;;4929300;28;20353;-62
2022/06/04 16:08:57;;;;;;;;;;;;;;;;;;4928615;28;19914;-62
2022/06/04 16:11:27;;;;;;;;;;;;;;;;;;4928060;28;20222;-63
2022/06/04 16:14:13;;;;;;;;;;;;;;;;;;4928182;28;19935;-63
2022/06/04 16:16:43;;;;;;;;;;;;;;;;;;4929126;28;20225;-61
2022/06/04 16:19:27;;;;;;;;;;;;;;;;;;4929452;28;20245;-63
2022/06/04 16:22:00;;;;;;;;;;;;;;;;;;4929884;28;20309;-62
2022/06/04 16:24:45;;;;;;;;;;;;;;;;;;4928626;28;20403;-62
2022/06/04 16:27:24;;;;;;;;;;;;;;;;;;4908263;28;20295;-62
2022/06/04 16:29:49;;;;;;;;;;;;;;;;;;4924129;28;20258;-63
2022/06/04 16:32:16;;;;;;;;;;;;;;;;;;4908846;28;20353;-62
2022/06/04 16:34:51;;;;;;;;;;;;;;;;;;4910957;28;20004;-62
2022/06/04 16:37:30;;;;;;;;;;;;;;;;;;4910032;28;20374;-63
2022/06/04 16:39:55;;;;;;;;;;;;;;;;;;4911843;28;20347;-63
2022/06/04 16:42:29;;;;;;;;;;;;;;;;;;4909905;28;19964;-63
2022/06/04 16:45:18;;;;;;;;;;;;;;;;;;4908364;28;20400;-63
2022/06/04 16:47:54;;;;;;;;;;;;;;;;;;4901751;28;20261;-63
2022/06/04 16:50:20;;;;;;;;;;;;;;;;;;4910590;28;20013;-63
2022/06/04 16:52:45;;;;;;;;;;;;;;;;;;4908979;28;20257;-62
2022/06/04 16:55:12;;;;;;;;;;;;;;;;;;4910496;28;20229;-62
2022/06/04 16:57:39;;;;;;;;;;;;;;;;;;4910096;28;20288;-63
2022/06/04 17:00:05;;;;;;;;;;;;;;;;;;4909618;28;20427;-63
2022/06/04 17:02:33;;;;;;;;;;;;;;;;;;4909762;28;20227;-62
2022/06/04 17:05:13;;;;;;;;;;;;;;;;;;4909364;28;19914;-62
2022/06/04 17:07:44;;;;;;;;;;;;;;;;;;4909512;28;20392;-62
2022/06/04 17:10:12;;;;;;;;;;;;;;;;;;4909915;28;19918;-62
2022/06/04 17:12:44;;;;;;;;;;;;;;;;;;4910034;28;20390;-62
2022/06/04 17:15:13;;;;;;;;;;;;;;;;;;4909634;28;20351;-62
2022/06/04 17:17:48;;;;;;;;;;;;;;;;;;4909725;28;20261;-62
2022/06/04 17:20:27;;;;;;;;;;;;;;;;;;4908478;28;20233;-63
2022/06/04 17:22:55;;;;;;;;;;;;;;;;;;4912780;28;20324;-63
2022/06/04 17:25:27;;;;;;;;;;;;;;;;;;4913085;28;20345;-63
2022/06/04 17:28:11;;;;;;;;;;;;;;;;;;4912764;28;20289;-62
2022/06/04 17:30:40;;;;;;;;;;;;;;;;;;4912894;28;20404;-62
2022/06/04 17:33:06;;;;;;;;;;;;;;;;;;4911126;28;20249;-62
2022/06/04 17:35:34;;;;;;;;;;;;;;;;;;4914265;28;19969;-62